createdAt,value
2023-04-15T00:00:15.380Z,8.86
2023-04-15T00:15:04.860Z,8.71
2023-04-15T08:53:44.346Z,11.87
2023-04-15T09:08:39.376Z,12.34
2023-04-15T09:23:30.908Z,12.57
2023-04-15T09:38:22.556Z,12.99
2023-04-15T09:53:20.808Z,13.38
2023-04-15T10:08:15.881Z,13.73
2023-04-15T10:23:09.943Z,13.91
2023-04-15T13:41:59.091Z,16.11
2023-04-15T13:56:50.396Z,15.88
2023-04-15T14:11:42.768Z,15.54
2023-04-15T14:26:36.240Z,15.14
2023-04-15T14:41:28.781Z,15.10
2023-04-15T14:56:30.311Z,15.11
2023-04-15T15:11:21.750Z,15.12
2023-04-15T15:26:12.929Z,14.99
2023-04-15T15:41:05.087Z,14.98
2023-04-15T15:55:55.752Z,14.93
2023-04-15T16:10:47.079Z,14.51
2023-04-15T16:40:28.221Z,13.44
2023-04-15T16:55:18.701Z,13.10
2023-04-15T17:25:01.378Z,12.14
2023-04-15T18:09:33.236Z,11.42
2023-04-15T18:24:24.135Z,11.19
2023-04-15T18:39:17.078Z,11.15
2023-04-15T18:54:07.974Z,11.01
2023-04-15T19:08:59.679Z,11.02
2023-04-15T19:23:53.033Z,11.04
2023-04-15T19:38:44.316Z,10.77
2023-04-15T19:53:36.860Z,10.69
2023-04-15T20:08:27.566Z,10.62
2023-04-15T20:23:19.041Z,10.72
2023-04-15T20:38:10.584Z,10.72
2023-04-15T20:53:01.468Z,10.77
2023-04-15T21:07:52.388Z,10.68
2023-04-15T21:22:43.461Z,10.67
2023-04-15T21:37:34.749Z,10.57
2023-04-15T21:52:25.437Z,10.49
2023-04-15T22:07:16.827Z,10.41
2023-04-15T22:22:07.666Z,10.38
2023-04-15T22:36:58.785Z,10.34
2023-04-15T22:51:51.551Z,10.36
2023-04-15T23:06:42.603Z,10.40
2023-04-15T23:21:33.921Z,10.37
2023-04-15T23:36:26.830Z,10.38
2023-04-15T23:51:20.203Z,10.36
